sensor_id;sensor_type;location;lat;lon;timestamp;temperature;humidity
57108;DHT22;42987;52.916;6.542;2023-04-01T00:00:58;10.00;99.90
57108;DHT22;42987;52.916;6.542;2023-04-01T00:03:25;10.00;99.90
57108;DHT22;42987;52.916;6.542;2023-04-01T00:05:53;10.00;99.90
57108;DHT22;42987;52.916;6.542;2023-04-01T00:08:19;10.00;99.90
57108;DHT22;42987;52.916;6.542;2023-04-01T00:10:45;10.00;99.90
57108;DHT22;42987;52.916;6.542;2023-04-01T00:13:11;10.00;99.90
57108;DHT22;42987;52.916;6.542;2023-04-01T00:15:37;10.00;99.90
57108;DHT22;42987;52.916;6.542;2023-04-01T00:18:03;10.00;99.90
57108;DHT22;42987;52.916;6.542;2023-04-01T00:20:29;10.00;99.90
57108;DHT22;42987;52.916;6.542;2023-04-01T00:22:55;10.00;99.90
57108;DHT22;42987;52.916;6.542;2023-04-01T00:25:22;10.00;99.90
57108;DHT22;42987;52.916;6.542;2023-04-01T00:27:48;10.00;99.90
57108;DHT22;42987;52.916;6.542;2023-04-01T00:30:15;10.00;99.90
57108;DHT22;42987;52.916;6.542;2023-04-01T00:32:41;10.00;99.90
57108;DHT22;42987;52.916;6.542;2023-04-01T00:35:07;10.00;99.90
57108;DHT22;42987;52.916;6.542;2023-04-01T00:37:35;10.00;99.90
57108;DHT22;42987;52.916;6.542;2023-04-01T00:40:04;10.00;99.90
57108;DHT22;42987;52.916;6.542;2023-04-01T00:42:31;10.00;99.90
57108;DHT22;42987;52.916;6.542;2023-04-01T00:44:57;10.00;99.90
57108;DHT22;42987;52.916;6.542;2023-04-01T00:47:26;10.00;99.90
57108;DHT22;42987;52.916;6.542;2023-04-01T00:49:53;10.00;99.90
57108;DHT22;42987;52.916;6.542;2023-04-01T00:52:23;9.90;99.90
57108;DHT22;42987;52.916;6.542;2023-04-01T00:54:55;10.00;99.90
57108;DHT22;42987;52.916;6.542;2023-04-01T00:57:34;9.90;99.90
57108;DHT22;42987;52.916;6.542;2023-04-01T01:00:05;9.90;99.90
57108;DHT22;42987;52.916;6.542;2023-04-01T01:02:33;9.90;99.90
57108;DHT22;42987;52.916;6.542;2023-04-01T01:05:00;9.90;99.90
57108;DHT22;42987;52.916;6.542;2023-04-01T01:07:38;9.90;99.90
57108;DHT22;42987;52.916;6.542;2023-04-01T01:10:15;9.90;99.90
57108;DHT22;42987;52.916;6.542;2023-04-01T01:23:46;9.80;99.90
57108;DHT22;42987;52.916;6.542;2023-04-01T01:28:47;9.80;99.90
57108;DHT22;42987;52.916;6.542;2023-04-01T01:32:13;9.80;99.90
57108;DHT22;42987;52.916;6.542;2023-04-01T01:35:02;9.80;99.90
57108;DHT22;42987;52.916;6.542;2023-04-01T01:37:29;9.80;99.90
57108;DHT22;42987;52.916;6.542;2023-04-01T01:40:05;9.70;99.90
57108;DHT22;42987;52.916;6.542;2023-04-01T01:42:34;9.70;99.90
57108;DHT22;42987;52.916;6.542;2023-04-01T01:45:04;9.70;99.90
57108;DHT22;42987;52.916;6.542;2023-04-01T01:47:30;9.70;99.90
57108;DHT22;42987;52.916;6.542;2023-04-01T01:49:57;9.70;99.90
57108;DHT22;42987;52.916;6.542;2023-04-01T01:52:23;9.70;99.90
57108;DHT22;42987;52.916;6.542;2023-04-01T01:54:50;9.80;99.90
57108;DHT22;42987;52.916;6.542;2023-04-01T01:57:17;9.80;99.90
57108;DHT22;42987;52.916;6.542;2023-04-01T01:59:46;9.80;99.90
57108;DHT22;42987;52.916;6.542;2023-04-01T02:02:19;9.80;99.90
57108;DHT22;42987;52.916;6.542;2023-04-01T02:04:46;9.80;99.90
57108;DHT22;42987;52.916;6.542;2023-04-01T02:07:18;9.80;99.90
57108;DHT22;42987;52.916;6.542;2023-04-01T02:09:45;9.80;99.90
57108;DHT22;42987;52.916;6.542;2023-04-01T02:12:14;9.80;99.90
57108;DHT22;42987;52.916;6.542;2023-04-01T02:17:33;9.80;99.90
57108;DHT22;42987;52.916;6.542;2023-04-01T02:22:40;9.80;99.90
57108;DHT22;42987;52.916;6.542;2023-04-01T02:25:25;9.80;99.90
57108;DHT22;42987;52.916;6.542;2023-04-01T02:27:52;9.90;99.90
57108;DHT22;42987;52.916;6.542;2023-04-01T02:30:18;9.90;99.90
57108;DHT22;42987;52.916;6.542;2023-04-01T02:32:44;9.90;99.90
57108;DHT22;42987;52.916;6.542;2023-04-01T02:35:13;9.80;99.90
57108;DHT22;42987;52.916;6.542;2023-04-01T02:37:40;9.90;99.90
57108;DHT22;42987;52.916;6.542;2023-04-01T02:40:13;9.80;99.90
57108;DHT22;42987;52.916;6.542;2023-04-01T02:42:39;9.80;99.90
57108;DHT22;42987;52.916;6.542;2023-04-01T02:45:12;9.80;99.90
57108;DHT22;42987;52.916;6.542;2023-04-01T02:47:38;9.90;99.90
57108;DHT22;42987;52.916;6.542;2023-04-01T02:50:05;9.80;99.90
57108;DHT22;42987;52.916;6.542;2023-04-01T02:52:31;9.90;99.90
57108;DHT22;42987;52.916;6.542;2023-04-01T02:54:57;9.90;99.90
57108;DHT22;42987;52.916;6.542;2023-04-01T02:57:26;9.80;99.90
57108;DHT22;42987;52.916;6.542;2023-04-01T02:59:52;9.80;99.90
57108;DHT22;42987;52.916;6.542;2023-04-01T03:02:18;9.80;99.90
57108;DHT22;42987;52.916;6.542;2023-04-01T03:04:44;9.80;99.90
57108;DHT22;42987;52.916;6.542;2023-04-01T03:07:10;9.80;99.90
57108;DHT22;42987;52.916;6.542;2023-04-01T03:09:37;9.80;99.90
57108;DHT22;42987;52.916;6.542;2023-04-01T03:12:03;9.90;99.90
57108;DHT22;42987;52.916;6.542;2023-04-01T03:14:30;9.90;99.90
57108;DHT22;42987;52.916;6.542;2023-04-01T03:16:55;9.80;99.90
57108;DHT22;42987;52.916;6.542;2023-04-01T03:19:21;9.90;99.90
57108;DHT22;42987;52.916;6.542;2023-04-01T03:21:47;9.90;99.90
57108;DHT22;42987;52.916;6.542;2023-04-01T03:24:13;9.90;99.90
57108;DHT22;42987;52.916;6.542;2023-04-01T03:26:39;9.90;99.90
57108;DHT22;42987;52.916;6.542;2023-04-01T03:29:05;9.90;99.90
57108;DHT22;42987;52.916;6.542;2023-04-01T03:31:30;9.90;99.90
57108;DHT22;42987;52.916;6.542;2023-04-01T03:33:56;9.90;99.90
57108;DHT22;42987;52.916;6.542;2023-04-01T03:36:22;9.80;99.90
57108;DHT22;42987;52.916;6.542;2023-04-01T03:38:48;9.80;99.90
57108;DHT22;42987;52.916;6.542;2023-04-01T03:41:15;9.80;99.90
57108;DHT22;42987;52.916;6.542;2023-04-01T03:43:42;9.80;99.90
57108;DHT22;42987;52.916;6.542;2023-04-01T03:46:08;9.90;99.90
57108;DHT22;42987;52.916;6.542;2023-04-01T03:48:34;9.90;99.90
57108;DHT22;42987;52.916;6.542;2023-04-01T03:51:00;9.80;99.90
57108;DHT22;42987;52.916;6.542;2023-04-01T03:53:26;9.80;99.90
57108;DHT22;42987;52.916;6.542;2023-04-01T03:55:52;9.80;99.90
57108;DHT22;42987;52.916;6.542;2023-04-01T03:58:19;9.80;99.90
57108;DHT22;42987;52.916;6.542;2023-04-01T04:00:45;9.80;99.90
57108;DHT22;42987;52.916;6.542;2023-04-01T04:03:11;9.80;99.90
57108;DHT22;42987;52.916;6.542;2023-04-01T04:05:49;9.80;99.90
57108;DHT22;42987;52.916;6.542;2023-04-01T04:08:16;9.80;99.90
57108;DHT22;42987;52.916;6.542;2023-04-01T04:10:42;9.80;99.90
57108;DHT22;42987;52.916;6.542;2023-04-01T04:13:08;9.80;99.90
57108;DHT22;42987;52.916;6.542;2023-04-01T04:15:34;9.80;99.90
57108;DHT22;42987;52.916;6.542;2023-04-01T04:18:00;9.80;99.90
57108;DHT22;42987;52.916;6.542;2023-04-01T04:20:26;9.80;99.90
57108;DHT22;42987;52.916;6.542;2023-04-01T04:22:52;9.80;99.90
57108;DHT22;42987;52.916;6.542;2023-04-01T04:25:17;9.80;99.90
57108;DHT22;42987;52.916;6.542;2023-04-01T04:27:43;9.80;99.90
57108;DHT22;42987;52.916;6.542;2023-04-01T04:30:09;9.80;99.90
57108;DHT22;42987;52.916;6.542;2023-04-01T04:32:35;9.80;99.90
57108;DHT22;42987;52.916;6.542;2023-04-01T04:35:01;9.80;99.90
57108;DHT22;42987;52.916;6.542;2023-04-01T04:37:27;9.80;99.90
57108;DHT22;42987;52.916;6.542;2023-04-01T04:39:53;9.80;99.90
57108;DHT22;42987;52.916;6.542;2023-04-01T04:42:22;9.80;99.90
57108;DHT22;42987;52.916;6.542;2023-04-01T04:44:48;9.70;99.90
57108;DHT22;42987;52.916;6.542;2023-04-01T04:47:13;9.80;99.90
57108;DHT22;42987;52.916;6.542;2023-04-01T04:49:40;9.80;99.90
57108;DHT22;42987;52.916;6.542;2023-04-01T04:52:05;9.80;99.90
57108;DHT22;42987;52.916;6.542;2023-04-01T04:54:32;9.80;99.90
57108;DHT22;42987;52.916;6.542;2023-04-01T04:56:57;9.80;99.90
57108;DHT22;42987;52.916;6.542;2023-04-01T04:59:23;9.80;99.90
57108;DHT22;42987;52.916;6.542;2023-04-01T05:01:49;9.80;99.90
57108;DHT22;42987;52.916;6.542;2023-04-01T05:04:15;9.80;99.90
57108;DHT22;42987;52.916;6.542;2023-04-01T05:06:42;9.80;99.90
57108;DHT22;42987;52.916;6.542;2023-04-01T05:09:12;9.80;99.90
57108;DHT22;42987;52.916;6.542;2023-04-01T05:11:37;9.80;99.90
57108;DHT22;42987;52.916;6.542;2023-04-01T05:14:03;9.80;99.90
57108;DHT22;42987;52.916;6.542;2023-04-01T05:16:32;9.80;99.90
57108;DHT22;42987;52.916;6.542;2023-04-01T05:18:58;9.80;99.90
57108;DHT22;42987;52.916;6.542;2023-04-01T05:21:24;9.80;99.90
57108;DHT22;42987;52.916;6.542;2023-04-01T05:23:50;9.80;99.90
57108;DHT22;42987;52.916;6.542;2023-04-01T05:26:19;9.80;99.90
57108;DHT22;42987;52.916;6.542;2023-04-01T05:28:44;9.80;99.90
57108;DHT22;42987;52.916;6.542;2023-04-01T05:31:10;9.80;99.90
57108;DHT22;42987;52.916;6.542;2023-04-01T05:33:36;9.80;99.90
57108;DHT22;42987;52.916;6.542;2023-04-01T05:36:20;9.80;99.90
57108;DHT22;42987;52.916;6.542;2023-04-01T05:38:49;9.90;99.90
57108;DHT22;42987;52.916;6.542;2023-04-01T05:41:16;9.80;99.90
57108;DHT22;42987;52.916;6.542;2023-04-01T05:43:42;9.80;99.90
57108;DHT22;42987;52.916;6.542;2023-04-01T05:46:08;9.90;99.90
57108;DHT22;42987;52.916;6.542;2023-04-01T05:48:34;9.80;99.90
57108;DHT22;42987;52.916;6.542;2023-04-01T05:51:01;9.80;99.90
57108;DHT22;42987;52.916;6.542;2023-04-01T05:53:27;9.90;99.90
57108;DHT22;42987;52.916;6.542;2023-04-01T05:55:52;9.90;99.90
57108;DHT22;42987;52.916;6.542;2023-04-01T05:58:18;9.90;99.90
57108;DHT22;42987;52.916;6.542;2023-04-01T06:00:44;9.90;99.90
57108;DHT22;42987;52.916;6.542;2023-04-01T06:03:10;9.90;99.90
57108;DHT22;42987;52.916;6.542;2023-04-01T06:05:43;9.90;99.90
57108;DHT22;42987;52.916;6.542;2023-04-01T06:08:17;9.90;99.90
57108;DHT22;42987;52.916;6.542;2023-04-01T06:10:48;9.90;99.90
57108;DHT22;42987;52.916;6.542;2023-04-01T06:13:34;9.90;99.90
57108;DHT22;42987;52.916;6.542;2023-04-01T06:19:23;10.00;99.90
57108;DHT22;42987;52.916;6.542;2023-04-01T06:30:53;10.00;99.90
57108;DHT22;42987;52.916;6.542;2023-04-01T06:39:00;10.00;99.90
57108;DHT22;42987;52.916;6.542;2023-04-01T06:44:55;10.00;99.90
57108;DHT22;42987;52.916;6.542;2023-04-01T06:51:06;10.00;99.90
57108;DHT22;42987;52.916;6.542;2023-04-01T06:55:57;10.10;99.90
57108;DHT22;42987;52.916;6.542;2023-04-01T06:58:29;10.00;99.90
57108;DHT22;42987;52.916;6.542;2023-04-01T07:00:59;10.00;99.90
57108;DHT22;42987;52.916;6.542;2023-04-01T07:03:41;10.00;99.90
57108;DHT22;42987;52.916;6.542;2023-04-01T07:09:05;10.10;99.90
57108;DHT22;42987;52.916;6.542;2023-04-01T07:11:34;10.00;99.90
57108;DHT22;42987;52.916;6.542;2023-04-01T07:19:39;9.90;99.90
57108;DHT22;42987;52.916;6.542;2023-04-01T07:22:28;9.90;99.90
57108;DHT22;42987;52.916;6.542;2023-04-01T07:24:59;10.00;99.90
57108;DHT22;42987;52.916;6.542;2023-04-01T07:27:26;10.00;99.90
57108;DHT22;42987;52.916;6.542;2023-04-01T07:29:56;10.00;99.90
57108;DHT22;42987;52.916;6.542;2023-04-01T07:32:47;10.10;99.90
57108;DHT22;42987;52.916;6.542;2023-04-01T07:35:21;10.10;99.90
57108;DHT22;42987;52.916;6.542;2023-04-01T07:51:35;10.40;99.90
57108;DHT22;42987;52.916;6.542;2023-04-01T07:57:11;10.50;99.90
57108;DHT22;42987;52.916;6.542;2023-04-01T08:10:08;10.70;99.90
57108;DHT22;42987;52.916;6.542;2023-04-01T08:15:28;10.80;99.90
57108;DHT22;42987;52.916;6.542;2023-04-01T08:21:20;10.80;99.90
57108;DHT22;42987;52.916;6.542;2023-04-01T08:23:57;10.90;99.90
57108;DHT22;42987;52.916;6.542;2023-04-01T08:26:39;11.00;99.90
57108;DHT22;42987;52.916;6.542;2023-04-01T08:32:03;11.00;99.90
57108;DHT22;42987;52.916;6.542;2023-04-01T08:34:36;11.10;99.90
57108;DHT22;42987;52.916;6.542;2023-04-01T08:37:15;11.00;99.90
57108;DHT22;42987;52.916;6.542;2023-04-01T08:39:53;10.90;99.90
57108;DHT22;42987;52.916;6.542;2023-04-01T08:42:27;10.90;99.90
57108;DHT22;42987;52.916;6.542;2023-04-01T08:45:24;11.00;99.90
57108;DHT22;42987;52.916;6.542;2023-04-01T08:56:21;11.10;99.90
57108;DHT22;42987;52.916;6.542;2023-04-01T08:59:13;11.10;99.90
57108;DHT22;42987;52.916;6.542;2023-04-01T09:16:22;11.00;99.90
57108;DHT22;42987;52.916;6.542;2023-04-01T09:19:16;11.00;99.90
57108;DHT22;42987;52.916;6.542;2023-04-01T09:25:01;11.10;99.90
57108;DHT22;42987;52.916;6.542;2023-04-01T09:27:45;11.10;99.90
57108;DHT22;42987;52.916;6.542;2023-04-01T09:36:33;11.20;99.90
57108;DHT22;42987;52.916;6.542;2023-04-01T09:44:58;11.20;99.90
57108;DHT22;42987;52.916;6.542;2023-04-01T09:55:23;11.20;99.90
57108;DHT22;42987;52.916;6.542;2023-04-01T10:21:10;11.30;99.90
57108;DHT22;42987;52.916;6.542;2023-04-01T10:26:58;11.40;99.90
57108;DHT22;42987;52.916;6.542;2023-04-01T10:35:37;11.40;99.90
57108;DHT22;42987;52.916;6.542;2023-04-01T10:46:53;11.20;99.90
57108;DHT22;42987;52.916;6.542;2023-04-01T10:55:48;11.00;99.90
57108;DHT22;42987;52.916;6.542;2023-04-01T11:04:18;10.80;99.90
57108;DHT22;42987;52.916;6.542;2023-04-01T11:24:37;10.50;99.90
57108;DHT22;42987;52.916;6.542;2023-04-01T11:32:54;10.40;99.90
57108;DHT22;42987;52.916;6.542;2023-04-01T11:43:46;10.30;99.90
57108;DHT22;42987;52.916;6.542;2023-04-01T12:06:30;10.10;99.90
57108;DHT22;42987;52.916;6.542;2023-04-01T12:11:48;10.20;99.90
57108;DHT22;42987;52.916;6.542;2023-04-01T12:14:28;10.20;99.90
57108;DHT22;42987;52.916;6.542;2023-04-01T12:25:29;10.10;99.90
57108;DHT22;42987;52.916;6.542;2023-04-01T12:42:29;10.10;99.90
57108;DHT22;42987;52.916;6.542;2023-04-01T13:05:20;10.20;99.90
57108;DHT22;42987;52.916;6.542;2023-04-01T13:11:24;10.10;99.90
57108;DHT22;42987;52.916;6.542;2023-04-01T13:16:25;10.00;99.90
57108;DHT22;42987;52.916;6.542;2023-04-01T13:18:57;9.90;99.90
57108;DHT22;42987;52.916;6.542;2023-04-01T13:22:09;9.90;99.90
57108;DHT22;42987;52.916;6.542;2023-04-01T13:27:44;9.80;99.90
57108;DHT22;42987;52.916;6.542;2023-04-01T13:30:27;9.80;99.90
57108;DHT22;42987;52.916;6.542;2023-04-01T13:36:02;9.70;99.90
57108;DHT22;42987;52.916;6.542;2023-04-01T13:44:09;9.60;99.90
57108;DHT22;42987;52.916;6.542;2023-04-01T13:57:59;9.50;99.90
57108;DHT22;42987;52.916;6.542;2023-04-01T14:00:47;9.40;99.90
57108;DHT22;42987;52.916;6.542;2023-04-01T14:08:59;9.30;99.90
57108;DHT22;42987;52.916;6.542;2023-04-01T14:17:44;9.20;99.90
57108;DHT22;42987;52.916;6.542;2023-04-01T14:25:53;9.10;99.90
57108;DHT22;42987;52.916;6.542;2023-04-01T14:31:41;9.10;99.90
57108;DHT22;42987;52.916;6.542;2023-04-01T14:34:18;9.00;99.90
57108;DHT22;42987;52.916;6.542;2023-04-01T14:45:20;9.00;99.90
57108;DHT22;42987;52.916;6.542;2023-04-01T14:50:21;8.90;99.90
57108;DHT22;42987;52.916;6.542;2023-04-01T14:58:09;9.00;99.90
57108;DHT22;42987;52.916;6.542;2023-04-01T15:01:07;9.00;99.90
57108;DHT22;42987;52.916;6.542;2023-04-01T15:04:10;9.00;99.90
57108;DHT22;42987;52.916;6.542;2023-04-01T15:17:58;8.90;99.90
57108;DHT22;42987;52.916;6.542;2023-04-01T15:37:34;8.90;99.90
57108;DHT22;42987;52.916;6.542;2023-04-01T15:40:22;9.00;99.90
57108;DHT22;42987;52.916;6.542;2023-04-01T15:51:25;8.80;99.90
57108;DHT22;42987;52.916;6.542;2023-04-01T15:56:49;8.80;99.90
57108;DHT22;42987;52.916;6.542;2023-04-01T15:59:28;8.80;99.90
57108;DHT22;42987;52.916;6.542;2023-04-01T16:02:13;8.80;99.90
57108;DHT22;42987;52.916;6.542;2023-04-01T16:05:27;8.80;99.90
57108;DHT22;42987;52.916;6.542;2023-04-01T16:08:03;8.80;99.90
57108;DHT22;42987;52.916;6.542;2023-04-01T16:10:56;8.70;99.90
57108;DHT22;42987;52.916;6.542;2023-04-01T16:26:50;8.50;99.90
57108;DHT22;42987;52.916;6.542;2023-04-01T16:32:20;8.40;99.90
57108;DHT22;42987;52.916;6.542;2023-04-01T16:37:39;8.30;99.90
57108;DHT22;42987;52.916;6.542;2023-04-01T16:48:12;8.10;99.90
57108;DHT22;42987;52.916;6.542;2023-04-01T16:50:44;8.10;99.90
57108;DHT22;42987;52.916;6.542;2023-04-01T16:55:50;8.00;99.90
57108;DHT22;42987;52.916;6.542;2023-04-01T16:58:25;8.00;99.90
57108;DHT22;42987;52.916;6.542;2023-04-01T17:01:20;7.90;99.90
57108;DHT22;42987;52.916;6.542;2023-04-01T17:03:52;7.90;99.90
57108;DHT22;42987;52.916;6.542;2023-04-01T17:07:01;7.90;99.90
57108;DHT22;42987;52.916;6.542;2023-04-01T17:12:42;7.80;99.90
57108;DHT22;42987;52.916;6.542;2023-04-01T17:18:24;7.80;99.90
57108;DHT22;42987;52.916;6.542;2023-04-01T17:21:10;7.80;99.90
57108;DHT22;42987;52.916;6.542;2023-04-01T17:23:52;7.70;99.90
57108;DHT22;42987;52.916;6.542;2023-04-01T17:29:09;7.70;99.90
57108;DHT22;42987;52.916;6.542;2023-04-01T17:32:07;7.60;99.90
57108;DHT22;42987;52.916;6.542;2023-04-01T17:35:00;7.60;99.90
57108;DHT22;42987;52.916;6.542;2023-04-01T17:45:56;7.50;99.90
57108;DHT22;42987;52.916;6.542;2023-04-01T17:48:43;7.40;99.90
57108;DHT22;42987;52.916;6.542;2023-04-01T17:51:33;7.30;99.90
57108;DHT22;42987;52.916;6.542;2023-04-01T17:54:32;7.30;99.90
57108;DHT22;42987;52.916;6.542;2023-04-01T18:00:28;7.20;99.90
57108;DHT22;42987;52.916;6.542;2023-04-01T18:09:14;7.10;99.90
57108;DHT22;42987;52.916;6.542;2023-04-01T18:17:21;7.10;99.90
57108;DHT22;42987;52.916;6.542;2023-04-01T18:23:06;7.00;99.90
57108;DHT22;42987;52.916;6.542;2023-04-01T18:25:39;7.00;99.90
57108;DHT22;42987;52.916;6.542;2023-04-01T18:28:36;7.00;99.90
57108;DHT22;42987;52.916;6.542;2023-04-01T18:31:05;6.90;99.90
57108;DHT22;42987;52.916;6.542;2023-04-01T18:33:46;6.90;99.90
57108;DHT22;42987;52.916;6.542;2023-04-01T18:39:17;6.90;99.90
57108;DHT22;42987;52.916;6.542;2023-04-01T18:44:41;6.80;99.90
57108;DHT22;42987;52.916;6.542;2023-04-01T18:52:28;6.90;99.90
57108;DHT22;42987;52.916;6.542;2023-04-01T18:57:51;6.90;99.90
57108;DHT22;42987;52.916;6.542;2023-04-01T19:00:38;6.90;99.90
57108;DHT22;42987;52.916;6.542;2023-04-01T19:05:46;6.90;99.90
57108;DHT22;42987;52.916;6.542;2023-04-01T19:08:29;6.80;99.90
57108;DHT22;42987;52.916;6.542;2023-04-01T19:25:02;6.80;99.90
57108;DHT22;42987;52.916;6.542;2023-04-01T19:27:49;6.80;99.90
57108;DHT22;42987;52.916;6.542;2023-04-01T19:30:54;6.80;99.90
57108;DHT22;42987;52.916;6.542;2023-04-01T19:36:37;6.80;99.90
57108;DHT22;42987;52.916;6.542;2023-04-01T19:39:27;6.80;99.90
57108;DHT22;42987;52.916;6.542;2023-04-01T19:51:11;6.80;99.90
57108;DHT22;42987;52.916;6.542;2023-04-01T19:53:45;6.70;99.90
57108;DHT22;42987;52.916;6.542;2023-04-01T19:56:17;6.70;99.90
57108;DHT22;42987;52.916;6.542;2023-04-01T20:01:30;6.60;99.90
57108;DHT22;42987;52.916;6.542;2023-04-01T20:04:03;6.60;99.90
57108;DHT22;42987;52.916;6.542;2023-04-01T20:06:52;6.60;99.90
57108;DHT22;42987;52.916;6.542;2023-04-01T20:14:45;6.50;99.90
57108;DHT22;42987;52.916;6.542;2023-04-01T20:17:44;6.50;99.90
57108;DHT22;42987;52.916;6.542;2023-04-01T20:25:32;6.50;99.90
57108;DHT22;42987;52.916;6.542;2023-04-01T20:28:09;6.50;99.90
57108;DHT22;42987;52.916;6.542;2023-04-01T20:36:33;6.40;99.90
57108;DHT22;42987;52.916;6.542;2023-04-01T20:52:57;6.20;99.90
57108;DHT22;42987;52.916;6.542;2023-04-01T21:07:08;6.10;99.90
57108;DHT22;42987;52.916;6.542;2023-04-01T21:22:00;6.10;99.90
57108;DHT22;42987;52.916;6.542;2023-04-01T21:30:23;6.00;99.90
57108;DHT22;42987;52.916;6.542;2023-04-01T21:35:31;6.00;99.90
57108;DHT22;42987;52.916;6.542;2023-04-01T21:41:05;6.00;99.90
57108;DHT22;42987;52.916;6.542;2023-04-01T22:09:41;5.80;99.90
57108;DHT22;42987;52.916;6.542;2023-04-01T22:17:58;5.80;99.90
57108;DHT22;42987;52.916;6.542;2023-04-01T22:20:37;5.80;99.90
57108;DHT22;42987;52.916;6.542;2023-04-01T22:23:23;5.80;99.90
57108;DHT22;42987;52.916;6.542;2023-04-01T22:31:11;5.80;99.90
57108;DHT22;42987;52.916;6.542;2023-04-01T22:33:49;5.70;99.90
57108;DHT22;42987;52.916;6.542;2023-04-01T22:49:51;5.50;99.90
57108;DHT22;42987;52.916;6.542;2023-04-01T22:52:40;5.50;99.90
57108;DHT22;42987;52.916;6.542;2023-04-01T22:55:25;5.50;99.90
57108;DHT22;42987;52.916;6.542;2023-04-01T22:58:11;5.40;99.90
57108;DHT22;42987;52.916;6.542;2023-04-01T23:00:50;5.50;99.90
57108;DHT22;42987;52.916;6.542;2023-04-01T23:03:22;5.40;99.90
57108;DHT22;42987;52.916;6.542;2023-04-01T23:05:54;5.40;99.90
57108;DHT22;42987;52.916;6.542;2023-04-01T23:08:27;5.40;99.90
57108;DHT22;42987;52.916;6.542;2023-04-01T23:11:02;5.40;99.90
57108;DHT22;42987;52.916;6.542;2023-04-01T23:13:37;5.40;99.90
57108;DHT22;42987;52.916;6.542;2023-04-01T23:16:06;5.30;99.90
57108;DHT22;42987;52.916;6.542;2023-04-01T23:22:16;5.30;99.90
57108;DHT22;42987;52.916;6.542;2023-04-01T23:24:58;5.30;99.90
57108;DHT22;42987;52.916;6.542;2023-04-01T23:27:41;5.30;99.90
57108;DHT22;42987;52.916;6.542;2023-04-01T23:36:00;5.20;99.90
57108;DHT22;42987;52.916;6.542;2023-04-01T23:38:38;5.20;99.90
57108;DHT22;42987;52.916;6.542;2023-04-01T23:41:05;5.20;99.90
57108;DHT22;42987;52.916;6.542;2023-04-01T23:43:39;5.20;99.90
57108;DHT22;42987;52.916;6.542;2023-04-01T23:46:07;5.20;99.90
57108;DHT22;42987;52.916;6.542;2023-04-01T23:48:44;5.20;99.90
57108;DHT22;42987;52.916;6.542;2023-04-01T23:51:22;5.10;99.90
57108;DHT22;42987;52.916;6.542;2023-04-01T23:54:03;5.20;99.90
57108;DHT22;42987;52.916;6.542;2023-04-01T23:56:42;5.10;99.90
57108;DHT22;42987;52.916;6.542;2023-04-01T23:59:17;5.10;99.90
